Terminal Aerodrome Forecast
Issued by NWS Wilmington, OH

Current Version | Previous Version | Graphics & Text | Print | Product List | Glossary On
Versions: 1 2 3 4 5 6 7 8 9 10 11 12 13
602
FTUS41 KILN 191739
TAFILN
TAF
KILN 191739Z 1918/2018 23009KT P6SM FEW040 SCT150
     FM200000 33004KT P6SM FEW130
     FM200900 VRB02KT 4SM BR FEW250
     FM201200 VRB02KT 1 1/2SM BR FEW120
     FM201400 18004KT P6SM FEW040=

USA.gov is the U.S. government's official web portal to all federal, state and local government web resources and services.